sensor_id;sensor_type;location;lat;lon;timestamp;P1;durP1;ratioP1;P2;durP2;ratioP2
13114;SDS011;6623;52.120;8.660;2022-12-10T00:01:06;37.10;;;23.83;;
13114;SDS011;6623;52.120;8.660;2022-12-10T00:03:33;38.27;;;23.87;;
13114;SDS011;6623;52.120;8.660;2022-12-10T00:06:03;33.73;;;23.60;;
13114;SDS011;6623;52.120;8.660;2022-12-10T00:08:30;36.30;;;24.10;;
13114;SDS011;6623;52.120;8.660;2022-12-10T00:10:56;34.50;;;23.20;;
13114;SDS011;6623;52.120;8.660;2022-12-10T00:13:22;33.03;;;22.27;;
13114;SDS011;6623;52.120;8.660;2022-12-10T00:15:47;32.10;;;23.37;;
13114;SDS011;6623;52.120;8.660;2022-12-10T00:18:13;32.47;;;23.23;;
13114;SDS011;6623;52.120;8.660;2022-12-10T00:20:39;31.90;;;22.50;;
13114;SDS011;6623;52.120;8.660;2022-12-10T00:23:04;32.90;;;22.47;;
13114;SDS011;6623;52.120;8.660;2022-12-10T00:25:31;31.70;;;21.60;;
13114;SDS011;6623;52.120;8.660;2022-12-10T00:27:57;32.83;;;21.73;;
13114;SDS011;6623;52.120;8.660;2022-12-10T00:30:23;32.77;;;22.13;;
13114;SDS011;6623;52.120;8.660;2022-12-10T00:32:48;28.83;;;21.40;;
13114;SDS011;6623;52.120;8.660;2022-12-10T00:35:14;28.97;;;21.93;;
13114;SDS011;6623;52.120;8.660;2022-12-10T00:37:40;31.10;;;22.07;;
13114;SDS011;6623;52.120;8.660;2022-12-10T00:40:05;32.00;;;22.33;;
13114;SDS011;6623;52.120;8.660;2022-12-10T00:42:31;30.23;;;21.20;;
13114;SDS011;6623;52.120;8.660;2022-12-10T00:44:57;30.10;;;21.80;;
13114;SDS011;6623;52.120;8.660;2022-12-10T00:47:22;34.43;;;22.67;;
13114;SDS011;6623;52.120;8.660;2022-12-10T00:49:48;29.47;;;22.13;;
13114;SDS011;6623;52.120;8.660;2022-12-10T00:52:13;33.00;;;22.53;;
13114;SDS011;6623;52.120;8.660;2022-12-10T00:54:39;31.77;;;21.53;;
13114;SDS011;6623;52.120;8.660;2022-12-10T00:57:05;32.07;;;21.27;;
13114;SDS011;6623;52.120;8.660;2022-12-10T00:59:31;32.73;;;22.40;;
13114;SDS011;6623;52.120;8.660;2022-12-10T01:01:57;30.03;;;22.13;;
13114;SDS011;6623;52.120;8.660;2022-12-10T01:04:22;33.37;;;21.23;;
13114;SDS011;6623;52.120;8.660;2022-12-10T01:06:49;30.87;;;21.17;;
13114;SDS011;6623;52.120;8.660;2022-12-10T01:09:18;30.33;;;21.60;;
13114;SDS011;6623;52.120;8.660;2022-12-10T01:11:48;28.67;;;20.60;;
13114;SDS011;6623;52.120;8.660;2022-12-10T01:14:19;32.43;;;21.83;;
13114;SDS011;6623;52.120;8.660;2022-12-10T01:16:53;31.10;;;21.63;;
13114;SDS011;6623;52.120;8.660;2022-12-10T01:19:20;30.10;;;20.70;;
13114;SDS011;6623;52.120;8.660;2022-12-10T01:21:49;28.87;;;20.70;;
13114;SDS011;6623;52.120;8.660;2022-12-10T01:24:15;27.20;;;21.30;;
13114;SDS011;6623;52.120;8.660;2022-12-10T01:26:41;32.50;;;21.30;;
13114;SDS011;6623;52.120;8.660;2022-12-10T01:29:07;29.60;;;21.17;;
13114;SDS011;6623;52.120;8.660;2022-12-10T01:31:33;31.33;;;21.20;;
13114;SDS011;6623;52.120;8.660;2022-12-10T01:34:00;29.53;;;21.73;;
13114;SDS011;6623;52.120;8.660;2022-12-10T01:36:34;26.43;;;20.63;;
13114;SDS011;6623;52.120;8.660;2022-12-10T01:39:03;27.70;;;21.00;;
13114;SDS011;6623;52.120;8.660;2022-12-10T01:41:34;26.43;;;20.67;;
13114;SDS011;6623;52.120;8.660;2022-12-10T01:46:36;30.43;;;21.27;;
13114;SDS011;6623;52.120;8.660;2022-12-10T01:49:04;31.37;;;21.77;;
13114;SDS011;6623;52.120;8.660;2022-12-10T01:51:37;34.00;;;22.93;;
13114;SDS011;6623;52.120;8.660;2022-12-10T01:54:06;34.17;;;24.63;;
13114;SDS011;6623;52.120;8.660;2022-12-10T01:56:35;32.60;;;23.27;;
13114;SDS011;6623;52.120;8.660;2022-12-10T01:59:03;35.90;;;24.13;;
13114;SDS011;6623;52.120;8.660;2022-12-10T02:01:38;32.90;;;23.20;;
13114;SDS011;6623;52.120;8.660;2022-12-10T02:04:38;33.40;;;22.30;;
13114;SDS011;6623;52.120;8.660;2022-12-10T02:09:43;30.07;;;22.10;;
13114;SDS011;6623;52.120;8.660;2022-12-10T02:17:17;30.67;;;21.50;;
13114;SDS011;6623;52.120;8.660;2022-12-10T02:22:34;29.87;;;22.00;;
13114;SDS011;6623;52.120;8.660;2022-12-10T02:25:41;32.63;;;22.37;;
13114;SDS011;6623;52.120;8.660;2022-12-10T02:28:25;33.50;;;22.33;;
13114;SDS011;6623;52.120;8.660;2022-12-10T02:31:01;33.30;;;22.53;;
13114;SDS011;6623;52.120;8.660;2022-12-10T02:33:29;33.03;;;22.83;;
13114;SDS011;6623;52.120;8.660;2022-12-10T02:35:57;31.03;;;22.10;;
13114;SDS011;6623;52.120;8.660;2022-12-10T02:38:29;32.40;;;23.07;;
13114;SDS011;6623;52.120;8.660;2022-12-10T02:41:01;30.03;;;21.80;;
13114;SDS011;6623;52.120;8.660;2022-12-10T02:43:31;30.80;;;21.27;;
13114;SDS011;6623;52.120;8.660;2022-12-10T02:45:58;29.60;;;21.77;;
13114;SDS011;6623;52.120;8.660;2022-12-10T02:48:26;31.87;;;22.53;;
13114;SDS011;6623;52.120;8.660;2022-12-10T02:50:53;30.87;;;21.80;;
13114;SDS011;6623;52.120;8.660;2022-12-10T02:53:18;32.40;;;23.23;;
13114;SDS011;6623;52.120;8.660;2022-12-10T03:04:25;30.87;;;21.73;;
13114;SDS011;6623;52.120;8.660;2022-12-10T03:07:00;29.30;;;22.10;;
13114;SDS011;6623;52.120;8.660;2022-12-10T03:09:35;29.53;;;20.80;;
13114;SDS011;6623;52.120;8.660;2022-12-10T03:12:21;29.53;;;22.23;;
13114;SDS011;6623;52.120;8.660;2022-12-10T03:14:54;35.27;;;23.00;;
13114;SDS011;6623;52.120;8.660;2022-12-10T03:17:24;33.47;;;23.97;;
13114;SDS011;6623;52.120;8.660;2022-12-10T03:19:51;31.30;;;21.80;;
13114;SDS011;6623;52.120;8.660;2022-12-10T03:22:18;32.27;;;23.03;;
13114;SDS011;6623;52.120;8.660;2022-12-10T03:24:45;33.10;;;22.97;;
13114;SDS011;6623;52.120;8.660;2022-12-10T03:27:12;35.17;;;23.40;;
13114;SDS011;6623;52.120;8.660;2022-12-10T03:29:44;33.03;;;23.63;;
13114;SDS011;6623;52.120;8.660;2022-12-10T03:32:13;29.57;;;22.17;;
13114;SDS011;6623;52.120;8.660;2022-12-10T03:34:40;30.63;;;21.87;;
13114;SDS011;6623;52.120;8.660;2022-12-10T03:37:08;30.77;;;22.93;;
13114;SDS011;6623;52.120;8.660;2022-12-10T03:39:34;32.07;;;23.70;;
13114;SDS011;6623;52.120;8.660;2022-12-10T03:42:01;33.00;;;23.60;;
13114;SDS011;6623;52.120;8.660;2022-12-10T03:44:27;30.33;;;22.20;;
13114;SDS011;6623;52.120;8.660;2022-12-10T03:46:53;30.07;;;21.83;;
13114;SDS011;6623;52.120;8.660;2022-12-10T03:49:19;31.73;;;22.37;;
13114;SDS011;6623;52.120;8.660;2022-12-10T03:51:44;30.83;;;21.60;;
13114;SDS011;6623;52.120;8.660;2022-12-10T03:54:10;29.13;;;21.40;;
13114;SDS011;6623;52.120;8.660;2022-12-10T03:56:35;27.73;;;20.57;;
13114;SDS011;6623;52.120;8.660;2022-12-10T03:59:01;27.17;;;20.03;;
13114;SDS011;6623;52.120;8.660;2022-12-10T04:01:26;30.23;;;21.20;;
13114;SDS011;6623;52.120;8.660;2022-12-10T04:03:52;30.90;;;22.73;;
13114;SDS011;6623;52.120;8.660;2022-12-10T04:06:18;29.60;;;21.70;;
13114;SDS011;6623;52.120;8.660;2022-12-10T04:08:44;29.47;;;21.47;;
13114;SDS011;6623;52.120;8.660;2022-12-10T04:11:10;28.87;;;21.27;;
13114;SDS011;6623;52.120;8.660;2022-12-10T04:13:38;28.07;;;20.73;;
13114;SDS011;6623;52.120;8.660;2022-12-10T04:16:23;29.00;;;21.00;;
13114;SDS011;6623;52.120;8.660;2022-12-10T04:18:54;27.30;;;21.67;;
13114;SDS011;6623;52.120;8.660;2022-12-10T04:21:21;28.07;;;20.93;;
13114;SDS011;6623;52.120;8.660;2022-12-10T04:24:09;28.17;;;20.43;;
13114;SDS011;6623;52.120;8.660;2022-12-10T04:26:53;30.10;;;21.53;;
13114;SDS011;6623;52.120;8.660;2022-12-10T04:29:23;26.73;;;20.43;;
13114;SDS011;6623;52.120;8.660;2022-12-10T04:31:50;29.83;;;20.80;;
13114;SDS011;6623;52.120;8.660;2022-12-10T04:34:17;26.80;;;20.40;;
13114;SDS011;6623;52.120;8.660;2022-12-10T04:36:42;24.77;;;19.30;;
13114;SDS011;6623;52.120;8.660;2022-12-10T04:39:08;28.27;;;20.77;;
13114;SDS011;6623;52.120;8.660;2022-12-10T04:41:36;27.53;;;20.90;;
13114;SDS011;6623;52.120;8.660;2022-12-10T04:44:04;27.60;;;21.17;;
13114;SDS011;6623;52.120;8.660;2022-12-10T04:46:29;25.67;;;19.40;;
13114;SDS011;6623;52.120;8.660;2022-12-10T04:48:55;25.20;;;20.17;;
13114;SDS011;6623;52.120;8.660;2022-12-10T04:51:21;26.77;;;20.47;;
13114;SDS011;6623;52.120;8.660;2022-12-10T04:53:46;27.67;;;20.47;;
13114;SDS011;6623;52.120;8.660;2022-12-10T04:56:12;26.93;;;20.80;;
13114;SDS011;6623;52.120;8.660;2022-12-10T04:58:37;27.10;;;19.97;;
13114;SDS011;6623;52.120;8.660;2022-12-10T05:01:03;28.40;;;20.53;;
13114;SDS011;6623;52.120;8.660;2022-12-10T05:03:30;27.73;;;20.67;;
13114;SDS011;6623;52.120;8.660;2022-12-10T05:06:00;26.20;;;19.80;;
13114;SDS011;6623;52.120;8.660;2022-12-10T05:08:30;27.03;;;20.50;;
13114;SDS011;6623;52.120;8.660;2022-12-10T05:11:06;26.23;;;19.37;;
13114;SDS011;6623;52.120;8.660;2022-12-10T05:13:34;28.37;;;20.13;;
13114;SDS011;6623;52.120;8.660;2022-12-10T05:16:04;24.60;;;19.60;;
13114;SDS011;6623;52.120;8.660;2022-12-10T05:18:31;26.33;;;19.60;;
13114;SDS011;6623;52.120;8.660;2022-12-10T05:21:00;27.40;;;19.80;;
13114;SDS011;6623;52.120;8.660;2022-12-10T05:23:27;24.60;;;19.50;;
13114;SDS011;6623;52.120;8.660;2022-12-10T05:26:00;28.07;;;20.10;;
13114;SDS011;6623;52.120;8.660;2022-12-10T05:28:31;28.60;;;20.77;;
13114;SDS011;6623;52.120;8.660;2022-12-10T05:31:01;28.03;;;21.13;;
13114;SDS011;6623;52.120;8.660;2022-12-10T05:33:27;25.43;;;20.00;;
13114;SDS011;6623;52.120;8.660;2022-12-10T05:35:57;25.40;;;20.67;;
13114;SDS011;6623;52.120;8.660;2022-12-10T05:38:24;28.53;;;19.87;;
13114;SDS011;6623;52.120;8.660;2022-12-10T05:40:50;25.57;;;19.47;;
13114;SDS011;6623;52.120;8.660;2022-12-10T05:43:16;25.70;;;20.60;;
13114;SDS011;6623;52.120;8.660;2022-12-10T05:45:42;27.87;;;19.93;;
13114;SDS011;6623;52.120;8.660;2022-12-10T05:48:11;29.10;;;20.10;;
13114;SDS011;6623;52.120;8.660;2022-12-10T05:50:38;25.47;;;19.83;;
13114;SDS011;6623;52.120;8.660;2022-12-10T05:53:04;28.77;;;20.93;;
13114;SDS011;6623;52.120;8.660;2022-12-10T05:55:30;27.33;;;20.77;;
13114;SDS011;6623;52.120;8.660;2022-12-10T05:57:57;30.10;;;20.00;;
13114;SDS011;6623;52.120;8.660;2022-12-10T06:00:24;28.33;;;20.23;;
13114;SDS011;6623;52.120;8.660;2022-12-10T06:02:50;27.73;;;21.23;;
13114;SDS011;6623;52.120;8.660;2022-12-10T06:05:16;27.00;;;19.53;;
13114;SDS011;6623;52.120;8.660;2022-12-10T06:07:42;26.23;;;19.90;;
13114;SDS011;6623;52.120;8.660;2022-12-10T06:10:08;25.87;;;21.07;;
13114;SDS011;6623;52.120;8.660;2022-12-10T06:12:34;27.10;;;19.73;;
13114;SDS011;6623;52.120;8.660;2022-12-10T06:14:59;27.87;;;20.50;;
13114;SDS011;6623;52.120;8.660;2022-12-10T06:17:25;27.27;;;20.20;;
13114;SDS011;6623;52.120;8.660;2022-12-10T06:19:50;30.40;;;19.70;;
13114;SDS011;6623;52.120;8.660;2022-12-10T06:22:16;28.07;;;19.97;;
13114;SDS011;6623;52.120;8.660;2022-12-10T06:24:42;27.23;;;19.70;;
13114;SDS011;6623;52.120;8.660;2022-12-10T06:27:07;27.60;;;20.60;;
13114;SDS011;6623;52.120;8.660;2022-12-10T06:29:33;26.33;;;19.80;;
13114;SDS011;6623;52.120;8.660;2022-12-10T06:31:58;26.70;;;19.37;;
13114;SDS011;6623;52.120;8.660;2022-12-10T06:34:24;26.97;;;20.27;;
13114;SDS011;6623;52.120;8.660;2022-12-10T06:36:50;26.53;;;19.30;;
13114;SDS011;6623;52.120;8.660;2022-12-10T06:39:15;25.03;;;19.93;;
13114;SDS011;6623;52.120;8.660;2022-12-10T06:41:41;27.83;;;20.17;;
13114;SDS011;6623;52.120;8.660;2022-12-10T06:44:08;26.40;;;20.43;;
13114;SDS011;6623;52.120;8.660;2022-12-10T06:46:35;25.80;;;19.87;;
13114;SDS011;6623;52.120;8.660;2022-12-10T06:49:01;23.37;;;18.83;;
13114;SDS011;6623;52.120;8.660;2022-12-10T06:51:27;25.93;;;19.63;;
13114;SDS011;6623;52.120;8.660;2022-12-10T06:53:54;24.80;;;19.63;;
13114;SDS011;6623;52.120;8.660;2022-12-10T06:56:19;25.17;;;19.93;;
13114;SDS011;6623;52.120;8.660;2022-12-10T06:58:45;28.47;;;20.90;;
13114;SDS011;6623;52.120;8.660;2022-12-10T07:01:13;24.50;;;19.47;;
13114;SDS011;6623;52.120;8.660;2022-12-10T07:03:40;28.03;;;21.23;;
13114;SDS011;6623;52.120;8.660;2022-12-10T07:06:06;25.30;;;19.63;;
13114;SDS011;6623;52.120;8.660;2022-12-10T07:08:33;25.63;;;19.63;;
13114;SDS011;6623;52.120;8.660;2022-12-10T07:11:03;25.10;;;19.07;;
13114;SDS011;6623;52.120;8.660;2022-12-10T07:13:30;25.87;;;20.10;;
13114;SDS011;6623;52.120;8.660;2022-12-10T07:15:55;27.63;;;20.13;;
13114;SDS011;6623;52.120;8.660;2022-12-10T07:18:21;25.47;;;19.57;;
13114;SDS011;6623;52.120;8.660;2022-12-10T07:20:46;25.07;;;20.00;;
13114;SDS011;6623;52.120;8.660;2022-12-10T07:23:12;26.43;;;20.27;;
13114;SDS011;6623;52.120;8.660;2022-12-10T07:25:37;26.37;;;19.63;;
13114;SDS011;6623;52.120;8.660;2022-12-10T07:28:03;26.17;;;19.83;;
13114;SDS011;6623;52.120;8.660;2022-12-10T07:30:29;24.90;;;19.73;;
13114;SDS011;6623;52.120;8.660;2022-12-10T07:32:54;24.07;;;19.43;;
13114;SDS011;6623;52.120;8.660;2022-12-10T07:35:20;25.03;;;19.27;;
13114;SDS011;6623;52.120;8.660;2022-12-10T07:37:45;27.00;;;20.47;;
13114;SDS011;6623;52.120;8.660;2022-12-10T07:40:11;27.17;;;20.30;;
13114;SDS011;6623;52.120;8.660;2022-12-10T07:42:36;28.37;;;20.57;;
13114;SDS011;6623;52.120;8.660;2022-12-10T07:45:02;26.57;;;21.00;;
13114;SDS011;6623;52.120;8.660;2022-12-10T07:47:28;27.37;;;21.40;;
13114;SDS011;6623;52.120;8.660;2022-12-10T07:49:54;27.53;;;21.13;;
13114;SDS011;6623;52.120;8.660;2022-12-10T07:52:19;25.57;;;19.97;;
13114;SDS011;6623;52.120;8.660;2022-12-10T07:54:45;24.93;;;19.53;;
13114;SDS011;6623;52.120;8.660;2022-12-10T07:57:10;27.13;;;21.07;;
13114;SDS011;6623;52.120;8.660;2022-12-10T07:59:36;28.20;;;19.87;;
13114;SDS011;6623;52.120;8.660;2022-12-10T08:02:02;26.43;;;20.57;;
13114;SDS011;6623;52.120;8.660;2022-12-10T08:04:28;29.03;;;20.53;;
13114;SDS011;6623;52.120;8.660;2022-12-10T08:06:55;27.40;;;21.03;;
13114;SDS011;6623;52.120;8.660;2022-12-10T08:09:20;26.17;;;20.10;;
13114;SDS011;6623;52.120;8.660;2022-12-10T08:11:46;24.50;;;19.80;;
13114;SDS011;6623;52.120;8.660;2022-12-10T08:14:11;27.23;;;20.07;;
13114;SDS011;6623;52.120;8.660;2022-12-10T08:16:37;25.50;;;19.40;;
13114;SDS011;6623;52.120;8.660;2022-12-10T08:19:03;27.77;;;20.50;;
13114;SDS011;6623;52.120;8.660;2022-12-10T08:21:29;24.07;;;19.00;;
13114;SDS011;6623;52.120;8.660;2022-12-10T08:23:57;25.70;;;20.37;;
13114;SDS011;6623;52.120;8.660;2022-12-10T08:26:24;23.13;;;18.70;;
13114;SDS011;6623;52.120;8.660;2022-12-10T08:28:52;26.33;;;20.53;;
13114;SDS011;6623;52.120;8.660;2022-12-10T08:31:19;28.17;;;20.43;;
13114;SDS011;6623;52.120;8.660;2022-12-10T08:33:45;25.20;;;19.47;;
13114;SDS011;6623;52.120;8.660;2022-12-10T08:36:12;24.03;;;18.73;;
13114;SDS011;6623;52.120;8.660;2022-12-10T08:38:39;24.87;;;19.47;;
13114;SDS011;6623;52.120;8.660;2022-12-10T08:41:10;24.97;;;19.13;;
13114;SDS011;6623;52.120;8.660;2022-12-10T08:43:37;24.57;;;19.17;;
13114;SDS011;6623;52.120;8.660;2022-12-10T08:46:03;26.57;;;19.20;;
13114;SDS011;6623;52.120;8.660;2022-12-10T08:48:29;24.00;;;18.80;;
13114;SDS011;6623;52.120;8.660;2022-12-10T08:50:55;24.17;;;18.93;;
13114;SDS011;6623;52.120;8.660;2022-12-10T08:53:21;24.10;;;19.07;;
13114;SDS011;6623;52.120;8.660;2022-12-10T08:55:49;25.20;;;19.60;;
13114;SDS011;6623;52.120;8.660;2022-12-10T08:58:15;24.63;;;19.50;;
13114;SDS011;6623;52.120;8.660;2022-12-10T09:00:41;24.57;;;19.17;;
13114;SDS011;6623;52.120;8.660;2022-12-10T09:03:07;23.53;;;18.53;;
13114;SDS011;6623;52.120;8.660;2022-12-10T09:05:34;23.70;;;19.27;;
13114;SDS011;6623;52.120;8.660;2022-12-10T09:08:00;26.07;;;19.43;;
13114;SDS011;6623;52.120;8.660;2022-12-10T09:10:26;26.03;;;19.20;;
13114;SDS011;6623;52.120;8.660;2022-12-10T09:12:51;25.20;;;19.30;;
13114;SDS011;6623;52.120;8.660;2022-12-10T09:15:17;23.93;;;18.93;;
13114;SDS011;6623;52.120;8.660;2022-12-10T09:17:43;27.60;;;20.20;;
13114;SDS011;6623;52.120;8.660;2022-12-10T09:20:08;24.33;;;18.77;;
13114;SDS011;6623;52.120;8.660;2022-12-10T09:22:34;23.50;;;18.23;;
13114;SDS011;6623;52.120;8.660;2022-12-10T09:25:02;25.17;;;20.20;;
13114;SDS011;6623;52.120;8.660;2022-12-10T09:27:29;25.93;;;19.30;;
13114;SDS011;6623;52.120;8.660;2022-12-10T09:29:55;24.80;;;18.67;;
13114;SDS011;6623;52.120;8.660;2022-12-10T09:32:21;26.77;;;18.90;;
13114;SDS011;6623;52.120;8.660;2022-12-10T09:34:47;25.83;;;18.57;;
13114;SDS011;6623;52.120;8.660;2022-12-10T09:37:16;21.23;;;16.53;;
13114;SDS011;6623;52.120;8.660;2022-12-10T09:39:41;22.50;;;17.73;;
13114;SDS011;6623;52.120;8.660;2022-12-10T09:44:47;23.73;;;18.77;;
13114;SDS011;6623;52.120;8.660;2022-12-10T09:47:21;22.70;;;17.27;;
13114;SDS011;6623;52.120;8.660;2022-12-10T09:49:58;23.60;;;18.30;;
13114;SDS011;6623;52.120;8.660;2022-12-10T09:52:39;24.13;;;17.47;;
13114;SDS011;6623;52.120;8.660;2022-12-10T09:55:11;20.50;;;16.30;;
13114;SDS011;6623;52.120;8.660;2022-12-10T09:57:44;21.17;;;15.60;;
13114;SDS011;6623;52.120;8.660;2022-12-10T10:02:55;19.83;;;14.90;;
13114;SDS011;6623;52.120;8.660;2022-12-10T10:05:25;21.90;;;15.30;;
13114;SDS011;6623;52.120;8.660;2022-12-10T10:07:53;16.83;;;12.93;;
13114;SDS011;6623;52.120;8.660;2022-12-10T10:10:22;10.03;;;8.70;;
13114;SDS011;6623;52.120;8.660;2022-12-10T10:15:44;14.40;;;9.80;;
13114;SDS011;6623;52.120;8.660;2022-12-10T10:18:30;14.07;;;10.50;;
13114;SDS011;6623;52.120;8.660;2022-12-10T10:21:03;9.73;;;7.90;;
13114;SDS011;6623;52.120;8.660;2022-12-10T10:23:32;11.43;;;8.27;;
13114;SDS011;6623;52.120;8.660;2022-12-10T10:25:58;15.40;;;11.70;;
13114;SDS011;6623;52.120;8.660;2022-12-10T10:28:23;7.53;;;6.40;;
13114;SDS011;6623;52.120;8.660;2022-12-10T10:30:50;9.63;;;7.43;;
13114;SDS011;6623;52.120;8.660;2022-12-10T10:33:17;9.60;;;7.93;;
13114;SDS011;6623;52.120;8.660;2022-12-10T10:38:18;11.40;;;7.97;;
13114;SDS011;6623;52.120;8.660;2022-12-10T10:40:55;9.00;;;7.43;;
13114;SDS011;6623;52.120;8.660;2022-12-10T10:43:23;8.23;;;6.73;;
13114;SDS011;6623;52.120;8.660;2022-12-10T10:46:13;8.23;;;7.20;;
13114;SDS011;6623;52.120;8.660;2022-12-10T10:48:46;15.43;;;13.27;;
13114;SDS011;6623;52.120;8.660;2022-12-10T10:56:37;6.70;;;5.83;;
13114;SDS011;6623;52.120;8.660;2022-12-10T11:04:11;8.03;;;6.50;;
13114;SDS011;6623;52.120;8.660;2022-12-10T11:06:39;7.80;;;6.33;;
13114;SDS011;6623;52.120;8.660;2022-12-10T11:09:06;7.57;;;6.37;;
13114;SDS011;6623;52.120;8.660;2022-12-10T11:11:33;8.67;;;6.57;;
13114;SDS011;6623;52.120;8.660;2022-12-10T11:16:39;7.60;;;6.67;;
13114;SDS011;6623;52.120;8.660;2022-12-10T11:19:05;6.83;;;5.40;;
13114;SDS011;6623;52.120;8.660;2022-12-10T11:21:41;9.47;;;5.87;;
13114;SDS011;6623;52.120;8.660;2022-12-10T11:24:10;6.63;;;5.80;;
13114;SDS011;6623;52.120;8.660;2022-12-10T11:29:36;7.10;;;6.40;;
13114;SDS011;6623;52.120;8.660;2022-12-10T11:32:17;8.77;;;7.50;;
13114;SDS011;6623;52.120;8.660;2022-12-10T11:38:23;7.13;;;5.70;;
13114;SDS011;6623;52.120;8.660;2022-12-10T11:43:38;7.70;;;6.07;;
13114;SDS011;6623;52.120;8.660;2022-12-10T11:49:04;7.93;;;6.50;;
13114;SDS011;6623;52.120;8.660;2022-12-10T12:00:24;8.30;;;6.70;;
13114;SDS011;6623;52.120;8.660;2022-12-10T12:11:16;7.80;;;6.90;;
13114;SDS011;6623;52.120;8.660;2022-12-10T12:14:08;9.20;;;7.10;;
13114;SDS011;6623;52.120;8.660;2022-12-10T12:16:46;8.00;;;6.63;;
13114;SDS011;6623;52.120;8.660;2022-12-10T12:19:42;11.90;;;7.73;;
13114;SDS011;6623;52.120;8.660;2022-12-10T12:22:23;14.30;;;8.67;;
13114;SDS011;6623;52.120;8.660;2022-12-10T12:24:49;9.80;;;7.70;;
13114;SDS011;6623;52.120;8.660;2022-12-10T12:27:22;11.70;;;7.43;;
13114;SDS011;6623;52.120;8.660;2022-12-10T12:35:39;8.40;;;6.57;;
13114;SDS011;6623;52.120;8.660;2022-12-10T12:38:30;8.80;;;7.73;;
13114;SDS011;6623;52.120;8.660;2022-12-10T12:41:09;9.47;;;7.93;;
13114;SDS011;6623;52.120;8.660;2022-12-10T12:44:01;9.87;;;7.47;;
13114;SDS011;6623;52.120;8.660;2022-12-10T12:46:43;9.27;;;7.73;;
13114;SDS011;6623;52.120;8.660;2022-12-10T12:49:24;12.53;;;8.73;;
13114;SDS011;6623;52.120;8.660;2022-12-10T12:52:00;9.63;;;8.53;;
13114;SDS011;6623;52.120;8.660;2022-12-10T12:54:26;10.40;;;8.70;;
13114;SDS011;6623;52.120;8.660;2022-12-10T13:04:49;10.50;;;7.93;;
13114;SDS011;6623;52.120;8.660;2022-12-10T13:09:45;11.00;;;9.37;;
13114;SDS011;6623;52.120;8.660;2022-12-10T13:18:03;9.17;;;7.50;;
13114;SDS011;6623;52.120;8.660;2022-12-10T13:20:49;9.10;;;7.33;;
13114;SDS011;6623;52.120;8.660;2022-12-10T13:23:46;9.13;;;7.43;;
13114;SDS011;6623;52.120;8.660;2022-12-10T13:26:22;12.27;;;8.40;;
13114;SDS011;6623;52.120;8.660;2022-12-10T13:28:52;11.30;;;9.57;;
13114;SDS011;6623;52.120;8.660;2022-12-10T13:31:21;10.43;;;8.90;;
13114;SDS011;6623;52.120;8.660;2022-12-10T13:36:35;11.10;;;9.47;;
13114;SDS011;6623;52.120;8.660;2022-12-10T13:45:06;16.70;;;10.87;;
13114;SDS011;6623;52.120;8.660;2022-12-10T13:50:17;12.00;;;9.37;;
13114;SDS011;6623;52.120;8.660;2022-12-10T13:58:26;12.23;;;9.17;;
13114;SDS011;6623;52.120;8.660;2022-12-10T14:01:12;12.97;;;10.50;;
13114;SDS011;6623;52.120;8.660;2022-12-10T14:06:23;16.50;;;11.60;;
13114;SDS011;6623;52.120;8.660;2022-12-10T14:08:55;17.83;;;12.37;;
13114;SDS011;6623;52.120;8.660;2022-12-10T14:11:36;15.37;;;11.57;;
13114;SDS011;6623;52.120;8.660;2022-12-10T14:14:04;15.50;;;11.50;;
13114;SDS011;6623;52.120;8.660;2022-12-10T14:16:44;15.70;;;12.10;;
13114;SDS011;6623;52.120;8.660;2022-12-10T14:19:14;18.97;;;11.10;;
13114;SDS011;6623;52.120;8.660;2022-12-10T14:21:41;14.63;;;11.20;;
13114;SDS011;6623;52.120;8.660;2022-12-10T14:27:14;19.13;;;12.97;;
13114;SDS011;6623;52.120;8.660;2022-12-10T14:29:48;16.33;;;11.33;;
13114;SDS011;6623;52.120;8.660;2022-12-10T14:32:22;18.10;;;11.77;;
13114;SDS011;6623;52.120;8.660;2022-12-10T14:34:59;13.00;;;9.97;;
13114;SDS011;6623;52.120;8.660;2022-12-10T14:37:27;14.43;;;9.83;;
13114;SDS011;6623;52.120;8.660;2022-12-10T14:39:55;12.03;;;9.90;;
13114;SDS011;6623;52.120;8.660;2022-12-10T14:42:21;11.33;;;9.40;;
13114;SDS011;6623;52.120;8.660;2022-12-10T14:44:56;10.90;;;8.87;;
13114;SDS011;6623;52.120;8.660;2022-12-10T14:47:23;12.63;;;9.53;;
13114;SDS011;6623;52.120;8.660;2022-12-10T14:49:50;12.50;;;10.57;;
13114;SDS011;6623;52.120;8.660;2022-12-10T14:52:19;13.23;;;10.63;;
13114;SDS011;6623;52.120;8.660;2022-12-10T14:54:47;14.87;;;11.27;;
13114;SDS011;6623;52.120;8.660;2022-12-10T14:57:24;13.97;;;10.70;;
13114;SDS011;6623;52.120;8.660;2022-12-10T15:02:30;14.30;;;10.90;;
13114;SDS011;6623;52.120;8.660;2022-12-10T15:04:59;18.87;;;11.70;;
13114;SDS011;6623;52.120;8.660;2022-12-10T15:07:26;14.50;;;11.17;;
13114;SDS011;6623;52.120;8.660;2022-12-10T15:09:59;14.03;;;11.40;;
13114;SDS011;6623;52.120;8.660;2022-12-10T15:12:30;15.10;;;11.60;;
13114;SDS011;6623;52.120;8.660;2022-12-10T15:15:03;14.13;;;11.67;;
13114;SDS011;6623;52.120;8.660;2022-12-10T15:17:37;15.73;;;11.57;;
13114;SDS011;6623;52.120;8.660;2022-12-10T15:20:18;15.30;;;11.83;;
13114;SDS011;6623;52.120;8.660;2022-12-10T15:22:45;15.43;;;12.53;;
13114;SDS011;6623;52.120;8.660;2022-12-10T15:25:19;13.47;;;10.90;;
13114;SDS011;6623;52.120;8.660;2022-12-10T15:27:55;15.07;;;11.60;;
13114;SDS011;6623;52.120;8.660;2022-12-10T15:30:33;13.73;;;11.20;;
13114;SDS011;6623;52.120;8.660;2022-12-10T15:33:01;15.77;;;11.83;;
13114;SDS011;6623;52.120;8.660;2022-12-10T15:35:27;13.17;;;10.33;;
13114;SDS011;6623;52.120;8.660;2022-12-10T15:37:53;14.17;;;11.53;;
13114;SDS011;6623;52.120;8.660;2022-12-10T15:42:56;12.40;;;10.20;;
13114;SDS011;6623;52.120;8.660;2022-12-10T15:45:44;15.67;;;11.70;;
13114;SDS011;6623;52.120;8.660;2022-12-10T15:48:14;14.30;;;11.57;;
13114;SDS011;6623;52.120;8.660;2022-12-10T15:50:40;14.13;;;11.67;;
13114;SDS011;6623;52.120;8.660;2022-12-10T15:53:11;14.40;;;11.20;;
13114;SDS011;6623;52.120;8.660;2022-12-10T15:55:39;15.43;;;11.70;;
13114;SDS011;6623;52.120;8.660;2022-12-10T15:58:10;15.27;;;12.03;;
13114;SDS011;6623;52.120;8.660;2022-12-10T16:00:36;15.57;;;11.90;;
13114;SDS011;6623;52.120;8.660;2022-12-10T16:03:04;15.23;;;11.57;;
13114;SDS011;6623;52.120;8.660;2022-12-10T16:05:34;14.43;;;11.40;;
13114;SDS011;6623;52.120;8.660;2022-12-10T16:08:03;15.00;;;12.23;;
13114;SDS011;6623;52.120;8.660;2022-12-10T16:10:37;15.63;;;11.20;;
13114;SDS011;6623;52.120;8.660;2022-12-10T16:13:04;17.77;;;12.90;;
13114;SDS011;6623;52.120;8.660;2022-12-10T16:15:36;15.83;;;12.87;;
13114;SDS011;6623;52.120;8.660;2022-12-10T16:18:10;15.87;;;12.23;;
13114;SDS011;6623;52.120;8.660;2022-12-10T16:20:36;18.10;;;12.57;;
13114;SDS011;6623;52.120;8.660;2022-12-10T16:23:02;15.93;;;11.67;;
13114;SDS011;6623;52.120;8.660;2022-12-10T16:25:30;17.40;;;12.47;;
13114;SDS011;6623;52.120;8.660;2022-12-10T16:27:57;18.03;;;13.50;;
13114;SDS011;6623;52.120;8.660;2022-12-10T16:30:24;20.97;;;14.93;;
13114;SDS011;6623;52.120;8.660;2022-12-10T16:33:00;19.80;;;14.03;;
13114;SDS011;6623;52.120;8.660;2022-12-10T16:35:26;22.23;;;15.80;;
13114;SDS011;6623;52.120;8.660;2022-12-10T16:37:52;21.70;;;16.40;;
13114;SDS011;6623;52.120;8.660;2022-12-10T16:40:22;18.37;;;13.60;;
13114;SDS011;6623;52.120;8.660;2022-12-10T16:42:48;16.50;;;12.30;;
13114;SDS011;6623;52.120;8.660;2022-12-10T16:45:27;15.10;;;11.90;;
13114;SDS011;6623;52.120;8.660;2022-12-10T16:48:02;17.83;;;13.63;;
13114;SDS011;6623;52.120;8.660;2022-12-10T16:50:28;17.63;;;13.37;;
13114;SDS011;6623;52.120;8.660;2022-12-10T16:52:54;15.63;;;12.60;;
13114;SDS011;6623;52.120;8.660;2022-12-10T16:55:22;17.97;;;12.77;;